sensor_id;sensor_type;location;lat;lon;timestamp;P1;durP1;ratioP1;P2;durP2;ratioP2
17265;SDS011;8749;47.076;15.412;2022-08-01T00:02:13;3.92;;;3.60;;
17265;SDS011;8749;47.076;15.412;2022-08-01T00:04:40;3.92;;;3.63;;
17265;SDS011;8749;47.076;15.412;2022-08-01T00:07:07;3.72;;;3.45;;
17265;SDS011;8749;47.076;15.412;2022-08-01T00:09:35;4.13;;;3.70;;
17265;SDS011;8749;47.076;15.412;2022-08-01T00:12:02;3.50;;;3.40;;
17265;SDS011;8749;47.076;15.412;2022-08-01T00:14:30;3.80;;;3.50;;
17265;SDS011;8749;47.076;15.412;2022-08-01T00:16:57;3.83;;;3.53;;
17265;SDS011;8749;47.076;15.412;2022-08-01T00:19:24;3.45;;;3.25;;
17265;SDS011;8749;47.076;15.412;2022-08-01T00:21:50;3.50;;;3.30;;
17265;SDS011;8749;47.076;15.412;2022-08-01T00:24:17;3.72;;;3.40;;
17265;SDS011;8749;47.076;15.412;2022-08-01T00:26:46;3.75;;;3.53;;
17265;SDS011;8749;47.076;15.412;2022-08-01T00:29:13;3.47;;;3.28;;
17265;SDS011;8749;47.076;15.412;2022-08-01T00:31:40;3.63;;;3.42;;
17265;SDS011;8749;47.076;15.412;2022-08-01T00:34:07;3.92;;;3.63;;
17265;SDS011;8749;47.076;15.412;2022-08-01T00:36:33;3.90;;;3.60;;
17265;SDS011;8749;47.076;15.412;2022-08-01T00:39:00;4.30;;;3.50;;
17265;SDS011;8749;47.076;15.412;2022-08-01T00:41:27;3.60;;;3.50;;
17265;SDS011;8749;47.076;15.412;2022-08-01T00:43:56;3.78;;;3.58;;
17265;SDS011;8749;47.076;15.412;2022-08-01T00:46:23;3.47;;;3.30;;
17265;SDS011;8749;47.076;15.412;2022-08-01T00:48:49;3.60;;;3.40;;
17265;SDS011;8749;47.076;15.412;2022-08-01T00:51:16;3.40;;;3.30;;
17265;SDS011;8749;47.076;15.412;2022-08-01T00:53:44;3.83;;;3.47;;
17265;SDS011;8749;47.076;15.412;2022-08-01T00:56:11;3.75;;;3.55;;
17265;SDS011;8749;47.076;15.412;2022-08-01T00:58:38;3.92;;;3.72;;
17265;SDS011;8749;47.076;15.412;2022-08-01T01:01:06;3.95;;;3.60;;
17265;SDS011;8749;47.076;15.412;2022-08-01T01:03:33;3.80;;;3.60;;
17265;SDS011;8749;47.076;15.412;2022-08-01T01:06:05;3.85;;;3.60;;
17265;SDS011;8749;47.076;15.412;2022-08-01T01:08:39;3.80;;;3.60;;
17265;SDS011;8749;47.076;15.412;2022-08-01T01:11:13;3.90;;;3.70;;
17265;SDS011;8749;47.076;15.412;2022-08-01T01:13:45;5.05;;;3.45;;
17265;SDS011;8749;47.076;15.412;2022-08-01T01:16:18;4.10;;;3.70;;
17265;SDS011;8749;47.076;15.412;2022-08-01T01:18:47;3.72;;;3.50;;
17265;SDS011;8749;47.076;15.412;2022-08-01T01:21:29;3.20;;;3.10;;
17265;SDS011;8749;47.076;15.412;2022-08-01T01:24:13;3.53;;;3.33;;
17265;SDS011;8749;47.076;15.412;2022-08-01T01:26:50;3.92;;;3.60;;
17265;SDS011;8749;47.076;15.412;2022-08-01T01:29:23;3.58;;;3.20;;
17265;SDS011;8749;47.076;15.412;2022-08-01T01:31:55;3.70;;;3.50;;
17265;SDS011;8749;47.076;15.412;2022-08-01T01:34:25;3.80;;;3.60;;
17265;SDS011;8749;47.076;15.412;2022-08-01T01:36:55;4.18;;;3.80;;
17265;SDS011;8749;47.076;15.412;2022-08-01T01:39:24;4.03;;;3.72;;
17265;SDS011;8749;47.076;15.412;2022-08-01T01:41:55;3.70;;;3.60;;
17265;SDS011;8749;47.076;15.412;2022-08-01T01:44:25;3.97;;;3.65;;
17265;SDS011;8749;47.076;15.412;2022-08-01T01:46:53;3.63;;;3.53;;
17265;SDS011;8749;47.076;15.412;2022-08-01T01:49:24;4.05;;;3.85;;
17265;SDS011;8749;47.076;15.412;2022-08-01T01:51:53;4.20;;;3.90;;
17265;SDS011;8749;47.076;15.412;2022-08-01T01:54:22;4.00;;;3.60;;
17265;SDS011;8749;47.076;15.412;2022-08-01T01:56:54;4.25;;;4.00;;
17265;SDS011;8749;47.076;15.412;2022-08-01T01:59:25;4.20;;;3.80;;
17265;SDS011;8749;47.076;15.412;2022-08-01T02:01:55;4.03;;;3.83;;
17265;SDS011;8749;47.076;15.412;2022-08-01T02:04:25;3.80;;;3.60;;
17265;SDS011;8749;47.076;15.412;2022-08-01T02:06:54;3.88;;;3.67;;
17265;SDS011;8749;47.076;15.412;2022-08-01T02:09:23;4.30;;;3.80;;
17265;SDS011;8749;47.076;15.412;2022-08-01T02:11:51;4.00;;;3.80;;
17265;SDS011;8749;47.076;15.412;2022-08-01T02:14:20;3.40;;;3.20;;
17265;SDS011;8749;47.076;15.412;2022-08-01T02:16:50;3.60;;;3.40;;
17265;SDS011;8749;47.076;15.412;2022-08-01T02:19:18;4.10;;;3.80;;
17265;SDS011;8749;47.076;15.412;2022-08-01T02:21:47;3.88;;;3.67;;
17265;SDS011;8749;47.076;15.412;2022-08-01T02:24:19;4.25;;;3.97;;
17265;SDS011;8749;47.076;15.412;2022-08-01T02:26:50;3.47;;;3.38;;
17265;SDS011;8749;47.076;15.412;2022-08-01T02:29:21;4.20;;;3.90;;
17265;SDS011;8749;47.076;15.412;2022-08-01T02:31:54;4.40;;;4.10;;
17265;SDS011;8749;47.076;15.412;2022-08-01T02:34:22;3.75;;;3.53;;
17265;SDS011;8749;47.076;15.412;2022-08-01T02:36:51;3.90;;;3.70;;
17265;SDS011;8749;47.076;15.412;2022-08-01T02:39:21;4.00;;;3.70;;
17265;SDS011;8749;47.076;15.412;2022-08-01T02:41:50;3.78;;;3.58;;
17265;SDS011;8749;47.076;15.412;2022-08-01T02:44:23;4.07;;;3.70;;
17265;SDS011;8749;47.076;15.412;2022-08-01T02:46:54;3.90;;;3.70;;
17265;SDS011;8749;47.076;15.412;2022-08-01T02:49:27;5.13;;;3.63;;
17265;SDS011;8749;47.076;15.412;2022-08-01T02:51:57;3.92;;;3.70;;
17265;SDS011;8749;47.076;15.412;2022-08-01T02:54:26;3.70;;;3.50;;
17265;SDS011;8749;47.076;15.412;2022-08-01T02:56:54;3.72;;;3.42;;
17265;SDS011;8749;47.076;15.412;2022-08-01T02:59:23;3.50;;;3.30;;
17265;SDS011;8749;47.076;15.412;2022-08-01T03:01:53;3.70;;;3.42;;
17265;SDS011;8749;47.076;15.412;2022-08-01T03:04:23;3.40;;;3.20;;
17265;SDS011;8749;47.076;15.412;2022-08-01T03:06:51;3.38;;;3.28;;
17265;SDS011;8749;47.076;15.412;2022-08-01T03:09:20;3.90;;;3.70;;
17265;SDS011;8749;47.076;15.412;2022-08-01T03:11:48;3.88;;;3.72;;
17265;SDS011;8749;47.076;15.412;2022-08-01T03:14:16;4.22;;;3.83;;
17265;SDS011;8749;47.076;15.412;2022-08-01T03:16:46;4.93;;;3.70;;
17265;SDS011;8749;47.076;15.412;2022-08-01T03:19:16;3.60;;;3.40;;
17265;SDS011;8749;47.076;15.412;2022-08-01T03:21:47;3.83;;;3.63;;
17265;SDS011;8749;47.076;15.412;2022-08-01T03:24:15;3.80;;;3.60;;
17265;SDS011;8749;47.076;15.412;2022-08-01T03:26:44;3.70;;;3.50;;
17265;SDS011;8749;47.076;15.412;2022-08-01T03:29:12;3.78;;;3.50;;
17265;SDS011;8749;47.076;15.412;2022-08-01T03:31:43;3.85;;;3.65;;
17265;SDS011;8749;47.076;15.412;2022-08-01T03:34:12;4.07;;;3.40;;
17265;SDS011;8749;47.076;15.412;2022-08-01T03:36:41;3.78;;;3.58;;
17265;SDS011;8749;47.076;15.412;2022-08-01T03:39:14;3.65;;;3.45;;
17265;SDS011;8749;47.076;15.412;2022-08-01T03:41:45;3.78;;;3.50;;
17265;SDS011;8749;47.076;15.412;2022-08-01T03:44:17;3.88;;;3.53;;
17265;SDS011;8749;47.076;15.412;2022-08-01T03:46:51;4.70;;;4.03;;
17265;SDS011;8749;47.076;15.412;2022-08-01T03:49:26;4.07;;;3.83;;
17265;SDS011;8749;47.076;15.412;2022-08-01T03:51:56;4.22;;;3.97;;
17265;SDS011;8749;47.076;15.412;2022-08-01T03:54:27;4.25;;;4.05;;
17265;SDS011;8749;47.076;15.412;2022-08-01T03:56:57;4.78;;;4.38;;
17265;SDS011;8749;47.076;15.412;2022-08-01T03:59:25;4.80;;;4.40;;
17265;SDS011;8749;47.076;15.412;2022-08-01T04:01:53;4.45;;;4.20;;
17265;SDS011;8749;47.076;15.412;2022-08-01T04:04:21;4.05;;;3.75;;
17265;SDS011;8749;47.076;15.412;2022-08-01T04:06:48;4.43;;;4.03;;
17265;SDS011;8749;47.076;15.412;2022-08-01T04:09:18;4.03;;;3.75;;
17265;SDS011;8749;47.076;15.412;2022-08-01T04:11:47;5.22;;;4.30;;
17265;SDS011;8749;47.076;15.412;2022-08-01T04:14:14;4.45;;;4.03;;
17265;SDS011;8749;47.076;15.412;2022-08-01T04:16:41;3.83;;;3.63;;
17265;SDS011;8749;47.076;15.412;2022-08-01T04:19:08;4.13;;;3.75;;
17265;SDS011;8749;47.076;15.412;2022-08-01T04:21:35;3.97;;;3.63;;
17265;SDS011;8749;47.076;15.412;2022-08-01T04:24:05;4.93;;;4.50;;
17265;SDS011;8749;47.076;15.412;2022-08-01T04:26:38;6.32;;;5.05;;
17265;SDS011;8749;47.076;15.412;2022-08-01T04:29:08;6.70;;;6.10;;
17265;SDS011;8749;47.076;15.412;2022-08-01T04:31:36;5.05;;;4.60;;
17265;SDS011;8749;47.076;15.412;2022-08-01T04:34:08;4.78;;;4.47;;
17265;SDS011;8749;47.076;15.412;2022-08-01T04:36:35;4.57;;;4.18;;
17265;SDS011;8749;47.076;15.412;2022-08-01T04:39:06;7.82;;;4.53;;
17265;SDS011;8749;47.076;15.412;2022-08-01T04:41:35;4.20;;;4.00;;
17265;SDS011;8749;47.076;15.412;2022-08-01T04:44:03;4.30;;;4.00;;
17265;SDS011;8749;47.076;15.412;2022-08-01T04:46:33;3.90;;;3.70;;
17265;SDS011;8749;47.076;15.412;2022-08-01T04:49:01;5.22;;;4.72;;
17265;SDS011;8749;47.076;15.412;2022-08-01T04:51:29;7.00;;;4.85;;
17265;SDS011;8749;47.076;15.412;2022-08-01T04:53:56;5.38;;;4.97;;
17265;SDS011;8749;47.076;15.412;2022-08-01T04:56:23;7.07;;;6.28;;
17265;SDS011;8749;47.076;15.412;2022-08-01T04:58:50;7.50;;;6.82;;
17265;SDS011;8749;47.076;15.412;2022-08-01T05:01:38;9.55;;;7.30;;
17265;SDS011;8749;47.076;15.412;2022-08-01T05:04:05;6.57;;;5.93;;
17265;SDS011;8749;47.076;15.412;2022-08-01T05:06:32;5.03;;;4.68;;
17265;SDS011;8749;47.076;15.412;2022-08-01T05:08:59;5.18;;;4.68;;
17265;SDS011;8749;47.076;15.412;2022-08-01T05:11:26;8.00;;;6.28;;
17265;SDS011;8749;47.076;15.412;2022-08-01T05:13:53;5.80;;;5.07;;
17265;SDS011;8749;47.076;15.412;2022-08-01T05:16:20;6.10;;;4.82;;
17265;SDS011;8749;47.076;15.412;2022-08-01T05:18:48;5.30;;;4.47;;
17265;SDS011;8749;47.076;15.412;2022-08-01T05:21:15;4.75;;;4.35;;
17265;SDS011;8749;47.076;15.412;2022-08-01T05:23:42;7.70;;;4.32;;
17265;SDS011;8749;47.076;15.412;2022-08-01T05:26:09;6.47;;;4.15;;
17265;SDS011;8749;47.076;15.412;2022-08-01T05:28:36;3.95;;;3.65;;
17265;SDS011;8749;47.076;15.412;2022-08-01T05:31:03;4.20;;;3.90;;
17265;SDS011;8749;47.076;15.412;2022-08-01T05:33:30;3.78;;;3.47;;
17265;SDS011;8749;47.076;15.412;2022-08-01T05:35:58;4.10;;;3.70;;
17265;SDS011;8749;47.076;15.412;2022-08-01T05:38:25;6.30;;;3.63;;
17265;SDS011;8749;47.076;15.412;2022-08-01T05:40:52;5.80;;;3.83;;
17265;SDS011;8749;47.076;15.412;2022-08-01T05:43:19;6.43;;;3.85;;
17265;SDS011;8749;47.076;15.412;2022-08-01T05:45:46;5.32;;;3.92;;
17265;SDS011;8749;47.076;15.412;2022-08-01T05:48:13;4.30;;;3.88;;
17265;SDS011;8749;47.076;15.412;2022-08-01T05:50:40;4.22;;;3.80;;
17265;SDS011;8749;47.076;15.412;2022-08-01T05:53:08;4.18;;;3.85;;
17265;SDS011;8749;47.076;15.412;2022-08-01T05:55:35;4.30;;;4.00;;
17265;SDS011;8749;47.076;15.412;2022-08-01T05:58:02;7.20;;;4.00;;
17265;SDS011;8749;47.076;15.412;2022-08-01T06:00:29;4.38;;;3.97;;
17265;SDS011;8749;47.076;15.412;2022-08-01T06:02:56;4.40;;;4.00;;
17265;SDS011;8749;47.076;15.412;2022-08-01T06:05:23;4.35;;;4.05;;
17265;SDS011;8749;47.076;15.412;2022-08-01T06:07:50;4.70;;;4.40;;
17265;SDS011;8749;47.076;15.412;2022-08-01T06:10:18;4.30;;;3.90;;
17265;SDS011;8749;47.076;15.412;2022-08-01T06:12:46;4.25;;;3.85;;
17265;SDS011;8749;47.076;15.412;2022-08-01T06:15:13;7.07;;;6.47;;
17265;SDS011;8749;47.076;15.412;2022-08-01T06:17:39;4.70;;;4.30;;
17265;SDS011;8749;47.076;15.412;2022-08-01T06:20:07;5.90;;;5.50;;
17265;SDS011;8749;47.076;15.412;2022-08-01T06:22:35;5.32;;;4.40;;
17265;SDS011;8749;47.076;15.412;2022-08-01T06:25:02;4.80;;;3.95;;
17265;SDS011;8749;47.076;15.412;2022-08-01T06:27:30;4.53;;;4.10;;
17265;SDS011;8749;47.076;15.412;2022-08-01T06:30:00;7.22;;;4.28;;
17265;SDS011;8749;47.076;15.412;2022-08-01T06:32:27;5.25;;;3.75;;
17265;SDS011;8749;47.076;15.412;2022-08-01T06:34:54;5.47;;;3.85;;
17265;SDS011;8749;47.076;15.412;2022-08-01T06:37:21;5.68;;;4.50;;
17265;SDS011;8749;47.076;15.412;2022-08-01T06:39:48;4.45;;;4.05;;
17265;SDS011;8749;47.076;15.412;2022-08-01T06:42:15;4.70;;;4.30;;
17265;SDS011;8749;47.076;15.412;2022-08-01T06:44:44;5.43;;;4.50;;
17265;SDS011;8749;47.076;15.412;2022-08-01T06:47:11;6.65;;;4.13;;
17265;SDS011;8749;47.076;15.412;2022-08-01T06:49:38;6.22;;;3.83;;
17265;SDS011;8749;47.076;15.412;2022-08-01T06:52:05;5.60;;;4.50;;
17265;SDS011;8749;47.076;15.412;2022-08-01T06:54:32;6.60;;;4.40;;
17265;SDS011;8749;47.076;15.412;2022-08-01T06:56:59;4.53;;;4.20;;
17265;SDS011;8749;47.076;15.412;2022-08-01T06:59:26;5.45;;;3.90;;
17265;SDS011;8749;47.076;15.412;2022-08-01T07:01:54;4.13;;;3.80;;
17265;SDS011;8749;47.076;15.412;2022-08-01T07:04:21;6.50;;;5.90;;
17265;SDS011;8749;47.076;15.412;2022-08-01T07:06:48;6.93;;;5.10;;
17265;SDS011;8749;47.076;15.412;2022-08-01T07:09:15;9.10;;;6.90;;
17265;SDS011;8749;47.076;15.412;2022-08-01T07:11:42;8.10;;;7.25;;
17265;SDS011;8749;47.076;15.412;2022-08-01T07:14:09;6.38;;;5.10;;
17265;SDS011;8749;47.076;15.412;2022-08-01T07:16:36;5.82;;;5.00;;
17265;SDS011;8749;47.076;15.412;2022-08-01T07:19:04;5.70;;;4.25;;
17265;SDS011;8749;47.076;15.412;2022-08-01T07:21:31;4.35;;;4.05;;
17265;SDS011;8749;47.076;15.412;2022-08-01T07:23:58;5.80;;;5.10;;
17265;SDS011;8749;47.076;15.412;2022-08-01T07:26:25;5.13;;;4.18;;
17265;SDS011;8749;47.076;15.412;2022-08-01T07:28:52;9.02;;;8.13;;
17265;SDS011;8749;47.076;15.412;2022-08-01T07:31:19;10.35;;;6.93;;
17265;SDS011;8749;47.076;15.412;2022-08-01T07:33:46;7.65;;;6.90;;
17265;SDS011;8749;47.076;15.412;2022-08-01T07:36:14;6.82;;;5.35;;
17265;SDS011;8749;47.076;15.412;2022-08-01T07:38:41;7.20;;;4.43;;
17265;SDS011;8749;47.076;15.412;2022-08-01T07:41:08;4.32;;;4.03;;
17265;SDS011;8749;47.076;15.412;2022-08-01T07:43:35;4.40;;;4.00;;
17265;SDS011;8749;47.076;15.412;2022-08-01T07:46:02;4.22;;;3.78;;
17265;SDS011;8749;47.076;15.412;2022-08-01T07:48:29;4.30;;;4.00;;
17265;SDS011;8749;47.076;15.412;2022-08-01T07:50:56;5.18;;;3.85;;
17265;SDS011;8749;47.076;15.412;2022-08-01T07:53:24;4.20;;;3.90;;
17265;SDS011;8749;47.076;15.412;2022-08-01T07:55:51;6.10;;;4.03;;
17265;SDS011;8749;47.076;15.412;2022-08-01T07:58:18;8.73;;;4.57;;
17265;SDS011;8749;47.076;15.412;2022-08-01T08:00:45;4.13;;;3.83;;
17265;SDS011;8749;47.076;15.412;2022-08-01T08:03:12;4.13;;;3.80;;
17265;SDS011;8749;47.076;15.412;2022-08-01T08:05:39;4.20;;;3.80;;
17265;SDS011;8749;47.076;15.412;2022-08-01T08:08:06;4.00;;;3.55;;
17265;SDS011;8749;47.076;15.412;2022-08-01T08:10:36;4.07;;;3.60;;
17265;SDS011;8749;47.076;15.412;2022-08-01T08:13:03;4.20;;;3.88;;
17265;SDS011;8749;47.076;15.412;2022-08-01T08:15:30;4.28;;;3.92;;
17265;SDS011;8749;47.076;15.412;2022-08-01T08:17:57;4.82;;;3.92;;
17265;SDS011;8749;47.076;15.412;2022-08-01T08:20:24;4.18;;;3.70;;
17265;SDS011;8749;47.076;15.412;2022-08-01T08:22:52;4.15;;;3.50;;
17265;SDS011;8749;47.076;15.412;2022-08-01T08:25:19;6.75;;;4.22;;
17265;SDS011;8749;47.076;15.412;2022-08-01T08:27:49;8.52;;;3.92;;
17265;SDS011;8749;47.076;15.412;2022-08-01T08:30:16;6.07;;;4.07;;
17265;SDS011;8749;47.076;15.412;2022-08-01T08:32:44;5.75;;;3.70;;
17265;SDS011;8749;47.076;15.412;2022-08-01T08:35:11;4.78;;;3.63;;
17265;SDS011;8749;47.076;15.412;2022-08-01T08:37:38;7.88;;;4.20;;
17265;SDS011;8749;47.076;15.412;2022-08-01T08:40:05;4.95;;;3.78;;
17265;SDS011;8749;47.076;15.412;2022-08-01T08:42:33;9.25;;;4.40;;
17265;SDS011;8749;47.076;15.412;2022-08-01T08:45:02;15.45;;;4.90;;
17265;SDS011;8749;47.076;15.412;2022-08-01T08:47:31;10.13;;;4.72;;
17265;SDS011;8749;47.076;15.412;2022-08-01T08:50:00;24.17;;;5.35;;
17265;SDS011;8749;47.076;15.412;2022-08-01T08:52:28;11.82;;;5.50;;
17265;SDS011;8749;47.076;15.412;2022-08-01T08:54:56;12.90;;;6.30;;
17265;SDS011;8749;47.076;15.412;2022-08-01T08:57:24;11.57;;;5.20;;
17265;SDS011;8749;47.076;15.412;2022-08-01T08:59:51;11.18;;;5.00;;
17265;SDS011;8749;47.076;15.412;2022-08-01T09:02:21;7.93;;;4.53;;
17265;SDS011;8749;47.076;15.412;2022-08-01T09:04:48;9.30;;;4.45;;
17265;SDS011;8749;47.076;15.412;2022-08-01T09:07:16;8.38;;;4.13;;
17265;SDS011;8749;47.076;15.412;2022-08-01T09:09:43;10.50;;;4.22;;
17265;SDS011;8749;47.076;15.412;2022-08-01T09:12:10;9.25;;;4.00;;
17265;SDS011;8749;47.076;15.412;2022-08-01T09:14:43;18.02;;;5.10;;
17265;SDS011;8749;47.076;15.412;2022-08-01T09:17:11;9.20;;;4.18;;
17265;SDS011;8749;47.076;15.412;2022-08-01T09:19:40;10.80;;;4.15;;
17265;SDS011;8749;47.076;15.412;2022-08-01T09:22:09;7.65;;;4.10;;
17265;SDS011;8749;47.076;15.412;2022-08-01T09:24:36;11.82;;;4.25;;
17265;SDS011;8749;47.076;15.412;2022-08-01T09:27:15;8.85;;;3.90;;
17265;SDS011;8749;47.076;15.412;2022-08-01T09:29:43;10.23;;;4.05;;
17265;SDS011;8749;47.076;15.412;2022-08-01T09:32:10;19.40;;;13.00;;
17265;SDS011;8749;47.076;15.412;2022-08-01T09:34:37;16.30;;;12.00;;
17265;SDS011;8749;47.076;15.412;2022-08-01T09:37:05;6.15;;;5.13;;
17265;SDS011;8749;47.076;15.412;2022-08-01T09:39:33;6.90;;;3.40;;
17265;SDS011;8749;47.076;15.412;2022-08-01T09:42:18;4.85;;;3.28;;
17265;SDS011;8749;47.076;15.412;2022-08-01T09:44:46;6.13;;;3.25;;
17265;SDS011;8749;47.076;15.412;2022-08-01T09:47:13;8.40;;;3.35;;
17265;SDS011;8749;47.076;15.412;2022-08-01T09:49:42;4.80;;;3.42;;
17265;SDS011;8749;47.076;15.412;2022-08-01T09:52:12;7.30;;;3.20;;
17265;SDS011;8749;47.076;15.412;2022-08-01T09:54:41;4.93;;;3.10;;
17265;SDS011;8749;47.076;15.412;2022-08-01T09:57:10;7.88;;;3.47;;
17265;SDS011;8749;47.076;15.412;2022-08-01T09:59:39;3.58;;;3.35;;
17265;SDS011;8749;47.076;15.412;2022-08-01T10:02:08;4.72;;;3.03;;
17265;SDS011;8749;47.076;15.412;2022-08-01T10:04:45;3.40;;;3.10;;
17265;SDS011;8749;47.076;15.412;2022-08-01T10:07:13;3.58;;;2.78;;
17265;SDS011;8749;47.076;15.412;2022-08-01T10:09:42;3.05;;;2.70;;
17265;SDS011;8749;47.076;15.412;2022-08-01T10:12:10;3.00;;;2.80;;
17265;SDS011;8749;47.076;15.412;2022-08-01T10:14:38;6.05;;;2.75;;
17265;SDS011;8749;47.076;15.412;2022-08-01T10:17:06;3.20;;;2.67;;
17265;SDS011;8749;47.076;15.412;2022-08-01T10:19:35;5.65;;;2.90;;
17265;SDS011;8749;47.076;15.412;2022-08-01T10:22:03;2.70;;;2.50;;
17265;SDS011;8749;47.076;15.412;2022-08-01T10:24:36;2.90;;;2.75;;
17265;SDS011;8749;47.076;15.412;2022-08-01T10:27:05;3.33;;;2.38;;
17265;SDS011;8749;47.076;15.412;2022-08-01T10:29:35;4.38;;;2.63;;
17265;SDS011;8749;47.076;15.412;2022-08-01T10:32:06;2.83;;;2.72;;
17265;SDS011;8749;47.076;15.412;2022-08-01T10:34:34;4.88;;;4.50;;
17265;SDS011;8749;47.076;15.412;2022-08-01T10:37:02;5.78;;;3.35;;
17265;SDS011;8749;47.076;15.412;2022-08-01T10:39:30;6.20;;;2.80;;
17265;SDS011;8749;47.076;15.412;2022-08-01T10:41:59;3.03;;;2.42;;
17265;SDS011;8749;47.076;15.412;2022-08-01T10:44:27;2.30;;;2.20;;
17265;SDS011;8749;47.076;15.412;2022-08-01T10:46:57;2.38;;;2.17;;
17265;SDS011;8749;47.076;15.412;2022-08-01T10:49:30;3.78;;;3.53;;
17265;SDS011;8749;47.076;15.412;2022-08-01T10:52:02;4.20;;;3.90;;
17265;SDS011;8749;47.076;15.412;2022-08-01T10:54:29;3.42;;;3.20;;
17265;SDS011;8749;47.076;15.412;2022-08-01T10:57:07;3.30;;;2.97;;
17265;SDS011;8749;47.076;15.412;2022-08-01T10:59:35;2.97;;;2.83;;
17265;SDS011;8749;47.076;15.412;2022-08-01T11:02:13;3.78;;;2.90;;
17265;SDS011;8749;47.076;15.412;2022-08-01T11:04:54;11.45;;;10.25;;
17265;SDS011;8749;47.076;15.412;2022-08-01T11:07:24;7.68;;;6.93;;
17265;SDS011;8749;47.076;15.412;2022-08-01T11:10:08;3.65;;;3.45;;
17265;SDS011;8749;47.076;15.412;2022-08-01T11:12:44;2.40;;;2.20;;
17265;SDS011;8749;47.076;15.412;2022-08-01T11:15:18;1.98;;;1.88;;
17265;SDS011;8749;47.076;15.412;2022-08-01T11:17:53;2.00;;;1.90;;
17265;SDS011;8749;47.076;15.412;2022-08-01T11:20:21;2.33;;;2.10;;
17265;SDS011;8749;47.076;15.412;2022-08-01T11:26:08;4.22;;;3.85;;
17265;SDS011;8749;47.076;15.412;2022-08-01T11:28:38;2.88;;;2.50;;
17265;SDS011;8749;47.076;15.412;2022-08-01T11:31:25;2.28;;;2.00;;
17265;SDS011;8749;47.076;15.412;2022-08-01T11:33:53;2.40;;;2.30;;
17265;SDS011;8749;47.076;15.412;2022-08-01T11:36:20;2.00;;;1.90;;
17265;SDS011;8749;47.076;15.412;2022-08-01T11:38:49;2.53;;;2.00;;
17265;SDS011;8749;47.076;15.412;2022-08-01T11:41:31;1.80;;;1.80;;
17265;SDS011;8749;47.076;15.412;2022-08-01T11:44:02;2.38;;;1.80;;
17265;SDS011;8749;47.076;15.412;2022-08-01T11:49:25;2.38;;;2.25;;
17265;SDS011;8749;47.076;15.412;2022-08-01T11:52:16;1.65;;;1.58;;
17265;SDS011;8749;47.076;15.412;2022-08-01T11:54:45;1.90;;;1.35;;
17265;SDS011;8749;47.076;15.412;2022-08-01T11:57:14;1.30;;;1.30;;
17265;SDS011;8749;47.076;15.412;2022-08-01T11:59:46;1.30;;;1.30;;
17265;SDS011;8749;47.076;15.412;2022-08-01T12:02:15;2.00;;;1.27;;
17265;SDS011;8749;47.076;15.412;2022-08-01T12:04:44;1.30;;;1.30;;
17265;SDS011;8749;47.076;15.412;2022-08-01T12:07:12;1.52;;;1.42;;
17265;SDS011;8749;47.076;15.412;2022-08-01T12:09:40;1.35;;;1.30;;
17265;SDS011;8749;47.076;15.412;2022-08-01T12:12:07;1.50;;;1.40;;
17265;SDS011;8749;47.076;15.412;2022-08-01T12:14:34;1.33;;;1.27;;
17265;SDS011;8749;47.076;15.412;2022-08-01T12:17:03;1.35;;;1.30;;
17265;SDS011;8749;47.076;15.412;2022-08-01T12:19:30;3.80;;;1.23;;
17265;SDS011;8749;47.076;15.412;2022-08-01T12:22:07;1.25;;;1.25;;
17265;SDS011;8749;47.076;15.412;2022-08-01T12:24:35;1.30;;;1.20;;
17265;SDS011;8749;47.076;15.412;2022-08-01T12:27:03;1.38;;;1.30;;
17265;SDS011;8749;47.076;15.412;2022-08-01T12:29:32;1.40;;;1.30;;
17265;SDS011;8749;47.076;15.412;2022-08-01T12:32:05;1.85;;;1.35;;
17265;SDS011;8749;47.076;15.412;2022-08-01T12:34:49;1.67;;;1.30;;
17265;SDS011;8749;47.076;15.412;2022-08-01T12:37:16;1.50;;;1.40;;
17265;SDS011;8749;47.076;15.412;2022-08-01T12:39:44;1.80;;;1.20;;
17265;SDS011;8749;47.076;15.412;2022-08-01T12:42:11;1.30;;;1.27;;
17265;SDS011;8749;47.076;15.412;2022-08-01T12:44:39;1.67;;;1.30;;
17265;SDS011;8749;47.076;15.412;2022-08-01T12:47:09;1.50;;;1.40;;
17265;SDS011;8749;47.076;15.412;2022-08-01T12:49:37;1.13;;;1.13;;
17265;SDS011;8749;47.076;15.412;2022-08-01T12:52:06;1.10;;;1.10;;
17265;SDS011;8749;47.076;15.412;2022-08-01T12:57:31;1.60;;;1.50;;
17265;SDS011;8749;47.076;15.412;2022-08-01T13:00:08;1.98;;;1.30;;
17265;SDS011;8749;47.076;15.412;2022-08-01T13:02:45;1.60;;;1.50;;
17265;SDS011;8749;47.076;15.412;2022-08-01T13:05:13;1.75;;;1.65;;
17265;SDS011;8749;47.076;15.412;2022-08-01T13:07:44;2.50;;;2.38;;
17265;SDS011;8749;47.076;15.412;2022-08-01T13:10:13;4.10;;;3.78;;
17265;SDS011;8749;47.076;15.412;2022-08-01T13:12:51;3.65;;;2.53;;
17265;SDS011;8749;47.076;15.412;2022-08-01T13:15:20;1.58;;;1.48;;
17265;SDS011;8749;47.076;15.412;2022-08-01T13:17:51;1.50;;;1.40;;
17265;SDS011;8749;47.076;15.412;2022-08-01T13:20:22;1.35;;;1.33;;
17265;SDS011;8749;47.076;15.412;2022-08-01T13:22:53;1.13;;;1.13;;
17265;SDS011;8749;47.076;15.412;2022-08-01T13:25:20;3.03;;;1.30;;
17265;SDS011;8749;47.076;15.412;2022-08-01T13:27:47;1.27;;;1.17;;
17265;SDS011;8749;47.076;15.412;2022-08-01T13:30:14;1.30;;;1.20;;
17265;SDS011;8749;47.076;15.412;2022-08-01T13:32:42;1.00;;;1.00;;
17265;SDS011;8749;47.076;15.412;2022-08-01T13:35:12;1.23;;;1.23;;
17265;SDS011;8749;47.076;15.412;2022-08-01T13:37:40;1.20;;;1.20;;
17265;SDS011;8749;47.076;15.412;2022-08-01T13:40:08;1.95;;;1.30;;
17265;SDS011;8749;47.076;15.412;2022-08-01T13:42:36;1.23;;;1.20;;
17265;SDS011;8749;47.076;15.412;2022-08-01T13:45:04;1.20;;;1.20;;
17265;SDS011;8749;47.076;15.412;2022-08-01T13:47:35;1.00;;;1.00;;
17265;SDS011;8749;47.076;15.412;2022-08-01T13:50:03;1.13;;;1.13;;
17265;SDS011;8749;47.076;15.412;2022-08-01T13:52:31;1.30;;;1.20;;
17265;SDS011;8749;47.076;15.412;2022-08-01T13:54:59;1.45;;;1.05;;
17265;SDS011;8749;47.076;15.412;2022-08-01T13:57:27;2.78;;;1.30;;
17265;SDS011;8749;47.076;15.412;2022-08-01T13:59:54;1.63;;;1.02;;
17265;SDS011;8749;47.076;15.412;2022-08-01T14:02:24;1.00;;;1.00;;
17265;SDS011;8749;47.076;15.412;2022-08-01T14:04:52;1.25;;;1.25;;
17265;SDS011;8749;47.076;15.412;2022-08-01T14:07:19;1.25;;;1.20;;
17265;SDS011;8749;47.076;15.412;2022-08-01T14:09:47;1.73;;;1.20;;
17265;SDS011;8749;47.076;15.412;2022-08-01T14:12:14;2.70;;;1.20;;
17265;SDS011;8749;47.076;15.412;2022-08-01T14:14:41;1.65;;;1.23;;
17265;SDS011;8749;47.076;15.412;2022-08-01T14:17:08;1.20;;;1.20;;
17265;SDS011;8749;47.076;15.412;2022-08-01T14:19:35;1.30;;;1.20;;
17265;SDS011;8749;47.076;15.412;2022-08-01T14:22:02;1.20;;;1.20;;
17265;SDS011;8749;47.076;15.412;2022-08-01T14:24:29;1.20;;;1.20;;
17265;SDS011;8749;47.076;15.412;2022-08-01T14:26:57;1.25;;;1.20;;
17265;SDS011;8749;47.076;15.412;2022-08-01T14:29:24;1.63;;;1.20;;
17265;SDS011;8749;47.076;15.412;2022-08-01T14:31:51;1.10;;;1.10;;
17265;SDS011;8749;47.076;15.412;2022-08-01T14:34:18;1.95;;;1.10;;
17265;SDS011;8749;47.076;15.412;2022-08-01T14:36:45;1.15;;;1.10;;
17265;SDS011;8749;47.076;15.412;2022-08-01T14:39:12;1.40;;;1.40;;
17265;SDS011;8749;47.076;15.412;2022-08-01T14:41:39;1.20;;;1.20;;
17265;SDS011;8749;47.076;15.412;2022-08-01T14:44:07;1.08;;;1.08;;
17265;SDS011;8749;47.076;15.412;2022-08-01T14:46:34;1.20;;;1.10;;
17265;SDS011;8749;47.076;15.412;2022-08-01T14:49:01;1.17;;;1.17;;
17265;SDS011;8749;47.076;15.412;2022-08-01T14:51:28;1.35;;;1.35;;
17265;SDS011;8749;47.076;15.412;2022-08-01T14:53:58;1.50;;;1.40;;
17265;SDS011;8749;47.076;15.412;2022-08-01T14:56:25;1.30;;;1.30;;
17265;SDS011;8749;47.076;15.412;2022-08-01T14:58:52;2.20;;;1.98;;
17265;SDS011;8749;47.076;15.412;2022-08-01T15:01:20;1.30;;;1.30;;
17265;SDS011;8749;47.076;15.412;2022-08-01T15:03:47;1.80;;;1.70;;
17265;SDS011;8749;47.076;15.412;2022-08-01T15:06:15;1.75;;;1.27;;
17265;SDS011;8749;47.076;15.412;2022-08-01T15:08:42;1.92;;;1.35;;